sensor_id;sensor_type;location;lat;lon;timestamp;P1;durP1;ratioP1;P2;durP2;ratioP2
70505;SDS011;58032;49.820;6.274;2023-06-22T00:01:20;11.82;;;6.25;;
70505;SDS011;58032;49.820;6.274;2023-06-22T00:03:49;10.50;;;6.27;;
70505;SDS011;58032;49.820;6.274;2023-06-22T00:06:16;9.90;;;6.38;;
70505;SDS011;58032;49.820;6.274;2023-06-22T00:08:43;11.35;;;7.05;;
70505;SDS011;58032;49.820;6.274;2023-06-22T00:11:10;11.25;;;7.38;;
70505;SDS011;58032;49.820;6.274;2023-06-22T00:13:37;9.30;;;6.43;;
70505;SDS011;58032;49.820;6.274;2023-06-22T00:16:05;8.83;;;6.13;;
70505;SDS011;58032;49.820;6.274;2023-06-22T00:18:32;12.68;;;7.13;;
70505;SDS011;58032;49.820;6.274;2023-06-22T00:20:59;10.10;;;7.00;;
70505;SDS011;58032;49.820;6.274;2023-06-22T00:23:26;11.30;;;7.30;;
70505;SDS011;58032;49.820;6.274;2023-06-22T00:25:53;14.77;;;7.57;;
70505;SDS011;58032;49.820;6.274;2023-06-22T00:28:20;10.77;;;7.40;;
70505;SDS011;58032;49.820;6.274;2023-06-22T00:30:48;11.25;;;7.57;;
70505;SDS011;58032;49.820;6.274;2023-06-22T00:33:20;9.95;;;7.28;;
70505;SDS011;58032;49.820;6.274;2023-06-22T00:35:47;12.35;;;7.07;;
70505;SDS011;58032;49.820;6.274;2023-06-22T00:38:14;12.13;;;7.80;;
70505;SDS011;58032;49.820;6.274;2023-06-22T00:40:41;11.27;;;7.27;;
70505;SDS011;58032;49.820;6.274;2023-06-22T00:43:08;10.80;;;6.97;;
70505;SDS011;58032;49.820;6.274;2023-06-22T00:45:35;10.98;;;6.70;;
70505;SDS011;58032;49.820;6.274;2023-06-22T00:48:02;9.82;;;7.05;;
70505;SDS011;58032;49.820;6.274;2023-06-22T00:50:30;11.65;;;7.10;;
70505;SDS011;58032;49.820;6.274;2023-06-22T00:53:05;10.37;;;6.57;;
70505;SDS011;58032;49.820;6.274;2023-06-22T00:55:35;11.32;;;7.57;;
70505;SDS011;58032;49.820;6.274;2023-06-22T00:58:07;10.07;;;7.43;;
70505;SDS011;58032;49.820;6.274;2023-06-22T01:00:37;14.20;;;9.30;;
70505;SDS011;58032;49.820;6.274;2023-06-22T01:03:05;16.30;;;9.75;;
70505;SDS011;58032;49.820;6.274;2023-06-22T01:05:36;11.83;;;7.67;;
70505;SDS011;58032;49.820;6.274;2023-06-22T01:11:18;11.77;;;7.93;;
70505;SDS011;58032;49.820;6.274;2023-06-22T01:13:51;10.57;;;6.10;;
70505;SDS011;58032;49.820;6.274;2023-06-22T01:16:35;12.73;;;7.53;;
70505;SDS011;58032;49.820;6.274;2023-06-22T01:19:20;13.70;;;8.93;;
70505;SDS011;58032;49.820;6.274;2023-06-22T01:22:05;14.45;;;9.90;;
70505;SDS011;58032;49.820;6.274;2023-06-22T01:24:41;16.05;;;9.60;;
70505;SDS011;58032;49.820;6.274;2023-06-22T01:27:39;17.40;;;10.13;;
70505;SDS011;58032;49.820;6.274;2023-06-22T01:30:17;13.40;;;8.63;;
70505;SDS011;58032;49.820;6.274;2023-06-22T01:32:45;16.43;;;9.53;;
70505;SDS011;58032;49.820;6.274;2023-06-22T01:35:13;15.07;;;8.95;;
70505;SDS011;58032;49.820;6.274;2023-06-22T01:37:42;14.30;;;10.10;;
70505;SDS011;58032;49.820;6.274;2023-06-22T01:40:10;15.50;;;10.35;;
70505;SDS011;58032;49.820;6.274;2023-06-22T01:42:38;16.13;;;10.60;;
70505;SDS011;58032;49.820;6.274;2023-06-22T01:45:06;16.50;;;10.43;;
70505;SDS011;58032;49.820;6.274;2023-06-22T01:47:36;16.00;;;10.98;;
70505;SDS011;58032;49.820;6.274;2023-06-22T01:50:05;16.52;;;10.68;;
70505;SDS011;58032;49.820;6.274;2023-06-22T01:52:32;17.23;;;10.05;;
70505;SDS011;58032;49.820;6.274;2023-06-22T01:55:00;15.98;;;10.15;;
70505;SDS011;58032;49.820;6.274;2023-06-22T01:57:28;15.50;;;10.57;;
70505;SDS011;58032;49.820;6.274;2023-06-22T02:00:10;15.88;;;10.05;;
70505;SDS011;58032;49.820;6.274;2023-06-22T02:05:43;16.33;;;9.85;;
70505;SDS011;58032;49.820;6.274;2023-06-22T02:08:22;17.10;;;10.60;;
70505;SDS011;58032;49.820;6.274;2023-06-22T02:10:51;15.60;;;10.40;;
70505;SDS011;58032;49.820;6.274;2023-06-22T02:13:20;17.85;;;11.48;;
70505;SDS011;58032;49.820;6.274;2023-06-22T02:15:48;18.83;;;10.60;;
70505;SDS011;58032;49.820;6.274;2023-06-22T02:18:15;17.05;;;9.95;;
70505;SDS011;58032;49.820;6.274;2023-06-22T02:20:42;16.65;;;10.00;;
70505;SDS011;58032;49.820;6.274;2023-06-22T02:23:09;17.77;;;10.93;;
70505;SDS011;58032;49.820;6.274;2023-06-22T02:25:36;16.27;;;10.27;;
70505;SDS011;58032;49.820;6.274;2023-06-22T02:28:03;15.52;;;9.80;;
70505;SDS011;58032;49.820;6.274;2023-06-22T02:30:30;16.30;;;10.18;;
70505;SDS011;58032;49.820;6.274;2023-06-22T02:32:58;14.27;;;9.82;;
70505;SDS011;58032;49.820;6.274;2023-06-22T02:35:26;15.13;;;9.43;;
70505;SDS011;58032;49.820;6.274;2023-06-22T02:38:02;14.43;;;9.60;;
70505;SDS011;58032;49.820;6.274;2023-06-22T02:40:30;16.08;;;10.02;;
70505;SDS011;58032;49.820;6.274;2023-06-22T02:42:58;13.68;;;9.50;;
70505;SDS011;58032;49.820;6.274;2023-06-22T02:45:29;16.05;;;10.52;;
70505;SDS011;58032;49.820;6.274;2023-06-22T02:47:56;14.07;;;9.13;;
70505;SDS011;58032;49.820;6.274;2023-06-22T02:50:23;15.70;;;9.20;;
70505;SDS011;58032;49.820;6.274;2023-06-22T02:52:56;13.05;;;9.05;;
70505;SDS011;58032;49.820;6.274;2023-06-22T02:55:22;15.63;;;9.60;;
70505;SDS011;58032;49.820;6.274;2023-06-22T02:57:54;17.25;;;10.88;;
70505;SDS011;58032;49.820;6.274;2023-06-22T03:00:21;17.80;;;10.97;;
70505;SDS011;58032;49.820;6.274;2023-06-22T03:02:48;17.95;;;10.55;;
70505;SDS011;58032;49.820;6.274;2023-06-22T03:05:16;17.05;;;10.10;;
70505;SDS011;58032;49.820;6.274;2023-06-22T03:07:45;18.00;;;10.70;;
70505;SDS011;58032;49.820;6.274;2023-06-22T03:10:12;17.80;;;10.40;;
70505;SDS011;58032;49.820;6.274;2023-06-22T03:12:41;16.60;;;10.27;;
70505;SDS011;58032;49.820;6.274;2023-06-22T03:15:10;16.63;;;9.95;;
70505;SDS011;58032;49.820;6.274;2023-06-22T03:17:39;13.93;;;9.20;;
70505;SDS011;58032;49.820;6.274;2023-06-22T03:20:08;14.85;;;9.18;;
70505;SDS011;58032;49.820;6.274;2023-06-22T03:22:41;14.60;;;9.45;;
70505;SDS011;58032;49.820;6.274;2023-06-22T03:25:08;13.37;;;8.70;;
70505;SDS011;58032;49.820;6.274;2023-06-22T03:27:45;15.55;;;9.27;;
70505;SDS011;58032;49.820;6.274;2023-06-22T03:30:12;14.13;;;9.43;;
70505;SDS011;58032;49.820;6.274;2023-06-22T03:32:39;13.95;;;10.20;;
70505;SDS011;58032;49.820;6.274;2023-06-22T03:35:06;13.57;;;9.65;;
70505;SDS011;58032;49.820;6.274;2023-06-22T03:37:35;14.47;;;9.80;;
70505;SDS011;58032;49.820;6.274;2023-06-22T03:40:02;12.48;;;8.23;;
70505;SDS011;58032;49.820;6.274;2023-06-22T03:42:34;15.52;;;9.05;;
70505;SDS011;58032;49.820;6.274;2023-06-22T03:45:02;13.23;;;8.98;;
70505;SDS011;58032;49.820;6.274;2023-06-22T03:47:32;18.00;;;8.70;;
70505;SDS011;58032;49.820;6.274;2023-06-22T03:49:59;11.10;;;7.37;;
70505;SDS011;58032;49.820;6.274;2023-06-22T03:52:26;11.85;;;8.13;;
70505;SDS011;58032;49.820;6.274;2023-06-22T03:54:53;14.05;;;9.23;;
70505;SDS011;58032;49.820;6.274;2023-06-22T03:57:20;13.50;;;8.23;;
70505;SDS011;58032;49.820;6.274;2023-06-22T03:59:46;14.98;;;8.68;;
70505;SDS011;58032;49.820;6.274;2023-06-22T04:02:13;13.37;;;8.40;;
70505;SDS011;58032;49.820;6.274;2023-06-22T04:04:40;13.65;;;8.75;;
70505;SDS011;58032;49.820;6.274;2023-06-22T04:07:07;11.60;;;8.10;;
70505;SDS011;58032;49.820;6.274;2023-06-22T04:09:35;13.93;;;8.68;;
70505;SDS011;58032;49.820;6.274;2023-06-22T04:12:02;13.40;;;8.95;;
70505;SDS011;58032;49.820;6.274;2023-06-22T04:14:29;13.07;;;8.47;;
70505;SDS011;58032;49.820;6.274;2023-06-22T04:16:57;12.77;;;8.55;;
70505;SDS011;58032;49.820;6.274;2023-06-22T04:19:25;16.38;;;8.57;;
70505;SDS011;58032;49.820;6.274;2023-06-22T04:21:51;13.10;;;9.02;;
70505;SDS011;58032;49.820;6.274;2023-06-22T04:24:18;11.73;;;8.23;;
70505;SDS011;58032;49.820;6.274;2023-06-22T04:26:45;12.00;;;8.33;;
70505;SDS011;58032;49.820;6.274;2023-06-22T04:29:13;11.43;;;8.25;;
70505;SDS011;58032;49.820;6.274;2023-06-22T04:31:40;13.23;;;8.30;;
70505;SDS011;58032;49.820;6.274;2023-06-22T04:34:07;12.65;;;8.23;;
70505;SDS011;58032;49.820;6.274;2023-06-22T04:36:35;10.65;;;7.53;;
70505;SDS011;58032;49.820;6.274;2023-06-22T04:39:08;10.87;;;7.30;;
70505;SDS011;58032;49.820;6.274;2023-06-22T04:41:40;11.48;;;7.30;;
70505;SDS011;58032;49.820;6.274;2023-06-22T04:44:11;12.40;;;8.68;;
70505;SDS011;58032;49.820;6.274;2023-06-22T04:46:54;12.40;;;8.45;;
70505;SDS011;58032;49.820;6.274;2023-06-22T04:49:26;14.73;;;8.65;;
70505;SDS011;58032;49.820;6.274;2023-06-22T04:52:04;13.53;;;8.50;;
70505;SDS011;58032;49.820;6.274;2023-06-22T04:54:36;12.85;;;8.43;;
70505;SDS011;58032;49.820;6.274;2023-06-22T04:57:04;13.93;;;8.52;;
70505;SDS011;58032;49.820;6.274;2023-06-22T04:59:37;11.40;;;7.90;;
70505;SDS011;58032;49.820;6.274;2023-06-22T05:02:05;13.85;;;8.13;;
70505;SDS011;58032;49.820;6.274;2023-06-22T05:04:32;10.70;;;7.83;;
70505;SDS011;58032;49.820;6.274;2023-06-22T05:06:59;11.90;;;6.82;;
70505;SDS011;58032;49.820;6.274;2023-06-22T05:09:27;10.90;;;7.30;;
70505;SDS011;58032;49.820;6.274;2023-06-22T05:11:54;11.15;;;7.57;;
70505;SDS011;58032;49.820;6.274;2023-06-22T05:14:21;9.35;;;6.82;;
70505;SDS011;58032;49.820;6.274;2023-06-22T05:16:48;12.30;;;7.57;;
70505;SDS011;58032;49.820;6.274;2023-06-22T05:19:15;11.68;;;7.43;;
70505;SDS011;58032;49.820;6.274;2023-06-22T05:21:43;10.05;;;6.90;;
70505;SDS011;58032;49.820;6.274;2023-06-22T05:24:10;10.27;;;6.82;;
70505;SDS011;58032;49.820;6.274;2023-06-22T05:26:36;12.30;;;6.88;;
70505;SDS011;58032;49.820;6.274;2023-06-22T05:29:03;11.47;;;7.70;;
70505;SDS011;58032;49.820;6.274;2023-06-22T05:31:30;11.15;;;7.68;;
70505;SDS011;58032;49.820;6.274;2023-06-22T05:33:57;11.02;;;7.15;;
70505;SDS011;58032;49.820;6.274;2023-06-22T05:36:24;12.00;;;7.60;;
70505;SDS011;58032;49.820;6.274;2023-06-22T05:38:51;10.95;;;7.63;;
70505;SDS011;58032;49.820;6.274;2023-06-22T05:41:19;12.43;;;8.23;;
70505;SDS011;58032;49.820;6.274;2023-06-22T05:43:46;11.10;;;7.07;;
70505;SDS011;58032;49.820;6.274;2023-06-22T05:46:13;10.93;;;7.35;;
70505;SDS011;58032;49.820;6.274;2023-06-22T05:48:40;12.50;;;7.70;;
70505;SDS011;58032;49.820;6.274;2023-06-22T05:51:07;11.57;;;7.75;;
70505;SDS011;58032;49.820;6.274;2023-06-22T05:53:34;12.03;;;8.00;;
70505;SDS011;58032;49.820;6.274;2023-06-22T05:56:01;10.10;;;7.18;;
70505;SDS011;58032;49.820;6.274;2023-06-22T05:58:27;12.45;;;7.95;;
70505;SDS011;58032;49.820;6.274;2023-06-22T06:00:54;11.40;;;7.55;;
70505;SDS011;58032;49.820;6.274;2023-06-22T06:03:21;10.73;;;7.45;;
70505;SDS011;58032;49.820;6.274;2023-06-22T06:05:49;13.30;;;8.60;;
70505;SDS011;58032;49.820;6.274;2023-06-22T06:08:16;12.45;;;7.22;;
70505;SDS011;58032;49.820;6.274;2023-06-22T06:10:43;11.05;;;7.35;;
70505;SDS011;58032;49.820;6.274;2023-06-22T06:13:10;11.23;;;7.40;;
70505;SDS011;58032;49.820;6.274;2023-06-22T06:15:37;11.90;;;7.45;;
70505;SDS011;58032;49.820;6.274;2023-06-22T06:18:04;13.27;;;6.97;;
70505;SDS011;58032;49.820;6.274;2023-06-22T06:20:33;11.30;;;6.72;;
70505;SDS011;58032;49.820;6.274;2023-06-22T06:23:00;10.45;;;6.78;;
70505;SDS011;58032;49.820;6.274;2023-06-22T06:25:27;13.52;;;7.68;;
70505;SDS011;58032;49.820;6.274;2023-06-22T06:27:54;11.68;;;6.53;;
70505;SDS011;58032;49.820;6.274;2023-06-22T06:30:23;13.03;;;7.77;;
70505;SDS011;58032;49.820;6.274;2023-06-22T06:32:50;10.68;;;7.32;;
70505;SDS011;58032;49.820;6.274;2023-06-22T06:35:18;12.52;;;7.93;;
70505;SDS011;58032;49.820;6.274;2023-06-22T06:37:45;10.80;;;7.45;;
70505;SDS011;58032;49.820;6.274;2023-06-22T06:40:15;12.18;;;7.97;;
70505;SDS011;58032;49.820;6.274;2023-06-22T06:42:44;12.73;;;8.37;;
70505;SDS011;58032;49.820;6.274;2023-06-22T06:45:16;12.00;;;7.90;;
70505;SDS011;58032;49.820;6.274;2023-06-22T06:47:45;13.13;;;8.02;;
70505;SDS011;58032;49.820;6.274;2023-06-22T06:50:13;10.23;;;7.65;;
70505;SDS011;58032;49.820;6.274;2023-06-22T06:52:39;12.55;;;7.63;;
70505;SDS011;58032;49.820;6.274;2023-06-22T06:55:07;10.77;;;6.90;;
70505;SDS011;58032;49.820;6.274;2023-06-22T06:57:38;15.82;;;7.88;;
70505;SDS011;58032;49.820;6.274;2023-06-22T07:00:06;12.43;;;7.90;;
70505;SDS011;58032;49.820;6.274;2023-06-22T07:02:38;11.50;;;7.22;;
70505;SDS011;58032;49.820;6.274;2023-06-22T07:05:07;12.15;;;7.82;;
70505;SDS011;58032;49.820;6.274;2023-06-22T07:07:34;11.27;;;7.83;;
70505;SDS011;58032;49.820;6.274;2023-06-22T07:10:04;13.95;;;8.18;;
70505;SDS011;58032;49.820;6.274;2023-06-22T07:12:32;12.20;;;8.02;;
70505;SDS011;58032;49.820;6.274;2023-06-22T07:15:03;13.88;;;7.55;;
70505;SDS011;58032;49.820;6.274;2023-06-22T07:17:37;13.18;;;8.13;;
70505;SDS011;58032;49.820;6.274;2023-06-22T07:20:06;10.80;;;7.87;;
70505;SDS011;58032;49.820;6.274;2023-06-22T07:22:36;11.93;;;7.10;;
70505;SDS011;58032;49.820;6.274;2023-06-22T07:25:07;14.35;;;7.70;;
70505;SDS011;58032;49.820;6.274;2023-06-22T07:27:43;9.43;;;7.20;;
70505;SDS011;58032;49.820;6.274;2023-06-22T07:30:11;11.88;;;8.30;;
70505;SDS011;58032;49.820;6.274;2023-06-22T07:32:39;11.87;;;8.10;;
70505;SDS011;58032;49.820;6.274;2023-06-22T07:35:06;12.40;;;7.95;;
70505;SDS011;58032;49.820;6.274;2023-06-22T07:37:33;9.68;;;7.07;;
70505;SDS011;58032;49.820;6.274;2023-06-22T07:40:01;12.00;;;8.15;;
70505;SDS011;58032;49.820;6.274;2023-06-22T07:42:34;9.88;;;7.13;;
70505;SDS011;58032;49.820;6.274;2023-06-22T07:45:02;14.00;;;7.90;;
70505;SDS011;58032;49.820;6.274;2023-06-22T07:47:31;9.68;;;6.82;;
70505;SDS011;58032;49.820;6.274;2023-06-22T07:50:01;10.38;;;8.02;;
70505;SDS011;58032;49.820;6.274;2023-06-22T07:52:29;16.48;;;8.45;;
70505;SDS011;58032;49.820;6.274;2023-06-22T07:54:57;11.98;;;8.35;;
70505;SDS011;58032;49.820;6.274;2023-06-22T07:57:24;13.53;;;8.23;;
70505;SDS011;58032;49.820;6.274;2023-06-22T07:59:59;11.50;;;7.75;;
70505;SDS011;58032;49.820;6.274;2023-06-22T08:02:27;11.27;;;6.57;;
70505;SDS011;58032;49.820;6.274;2023-06-22T08:04:54;10.95;;;8.10;;
70505;SDS011;58032;49.820;6.274;2023-06-22T08:07:26;9.27;;;6.45;;
70505;SDS011;58032;49.820;6.274;2023-06-22T08:09:53;11.57;;;7.73;;
70505;SDS011;58032;49.820;6.274;2023-06-22T08:12:20;10.18;;;6.78;;
70505;SDS011;58032;49.820;6.274;2023-06-22T08:14:55;9.77;;;6.97;;
70505;SDS011;58032;49.820;6.274;2023-06-22T08:17:25;10.20;;;6.60;;
70505;SDS011;58032;49.820;6.274;2023-06-22T08:19:52;9.15;;;6.68;;
70505;SDS011;58032;49.820;6.274;2023-06-22T08:22:19;11.70;;;7.83;;
70505;SDS011;58032;49.820;6.274;2023-06-22T08:24:46;12.00;;;7.57;;
70505;SDS011;58032;49.820;6.274;2023-06-22T08:27:13;10.75;;;8.23;;
70505;SDS011;58032;49.820;6.274;2023-06-22T08:29:41;13.30;;;8.10;;
70505;SDS011;58032;49.820;6.274;2023-06-22T08:32:12;11.60;;;7.68;;
70505;SDS011;58032;49.820;6.274;2023-06-22T08:34:38;12.43;;;7.90;;
70505;SDS011;58032;49.820;6.274;2023-06-22T08:37:09;12.83;;;7.77;;
70505;SDS011;58032;49.820;6.274;2023-06-22T08:39:36;10.93;;;7.63;;
70505;SDS011;58032;49.820;6.274;2023-06-22T08:42:03;11.52;;;7.32;;
70505;SDS011;58032;49.820;6.274;2023-06-22T08:44:30;10.68;;;7.95;;
70505;SDS011;58032;49.820;6.274;2023-06-22T08:46:57;11.65;;;7.90;;
70505;SDS011;58032;49.820;6.274;2023-06-22T08:49:24;11.30;;;7.13;;
70505;SDS011;58032;49.820;6.274;2023-06-22T08:51:51;12.55;;;7.57;;
70505;SDS011;58032;49.820;6.274;2023-06-22T08:54:20;12.40;;;7.75;;
70505;SDS011;58032;49.820;6.274;2023-06-22T08:56:47;12.23;;;8.32;;
70505;SDS011;58032;49.820;6.274;2023-06-22T08:59:14;15.63;;;9.40;;
70505;SDS011;58032;49.820;6.274;2023-06-22T09:01:41;17.83;;;9.53;;
70505;SDS011;58032;49.820;6.274;2023-06-22T09:04:12;21.35;;;10.52;;
70505;SDS011;58032;49.820;6.274;2023-06-22T09:06:39;17.10;;;10.00;;
70505;SDS011;58032;49.820;6.274;2023-06-22T09:09:15;17.02;;;9.75;;
70505;SDS011;58032;49.820;6.274;2023-06-22T09:11:43;13.35;;;8.32;;
70505;SDS011;58032;49.820;6.274;2023-06-22T09:14:10;14.10;;;9.07;;
70505;SDS011;58032;49.820;6.274;2023-06-22T09:16:37;15.48;;;9.40;;
70505;SDS011;58032;49.820;6.274;2023-06-22T09:19:05;15.20;;;10.07;;
70505;SDS011;58032;49.820;6.274;2023-06-22T09:21:32;14.90;;;9.82;;
70505;SDS011;58032;49.820;6.274;2023-06-22T09:24:00;15.82;;;10.40;;
70505;SDS011;58032;49.820;6.274;2023-06-22T09:26:27;18.20;;;10.97;;
70505;SDS011;58032;49.820;6.274;2023-06-22T09:28:53;14.32;;;9.65;;
70505;SDS011;58032;49.820;6.274;2023-06-22T09:31:20;14.10;;;9.77;;
70505;SDS011;58032;49.820;6.274;2023-06-22T09:33:54;17.50;;;9.88;;
70505;SDS011;58032;49.820;6.274;2023-06-22T09:36:21;15.07;;;10.18;;
70505;SDS011;58032;49.820;6.274;2023-06-22T09:38:49;16.57;;;10.30;;
70505;SDS011;58032;49.820;6.274;2023-06-22T09:41:25;13.95;;;10.07;;
70505;SDS011;58032;49.820;6.274;2023-06-22T09:43:51;15.43;;;10.40;;
70505;SDS011;58032;49.820;6.274;2023-06-22T09:46:20;14.95;;;10.27;;
70505;SDS011;58032;49.820;6.274;2023-06-22T09:48:48;19.17;;;10.98;;
70505;SDS011;58032;49.820;6.274;2023-06-22T09:51:15;18.03;;;10.70;;
70505;SDS011;58032;49.820;6.274;2023-06-22T09:53:43;15.45;;;9.43;;
70505;SDS011;58032;49.820;6.274;2023-06-22T09:56:10;12.85;;;9.63;;
70505;SDS011;58032;49.820;6.274;2023-06-22T09:58:41;14.57;;;9.25;;
70505;SDS011;58032;49.820;6.274;2023-06-22T10:01:09;14.82;;;9.05;;
70505;SDS011;58032;49.820;6.274;2023-06-22T10:03:42;13.20;;;8.30;;
70505;SDS011;58032;49.820;6.274;2023-06-22T10:06:09;14.40;;;9.10;;
70505;SDS011;58032;49.820;6.274;2023-06-22T10:08:36;15.32;;;9.80;;
70505;SDS011;58032;49.820;6.274;2023-06-22T10:11:03;17.33;;;10.73;;
70505;SDS011;58032;49.820;6.274;2023-06-22T10:13:30;15.20;;;9.63;;
70505;SDS011;58032;49.820;6.274;2023-06-22T10:15:57;13.67;;;9.53;;
70505;SDS011;58032;49.820;6.274;2023-06-22T10:18:24;14.55;;;10.13;;
70505;SDS011;58032;49.820;6.274;2023-06-22T10:20:51;15.02;;;9.38;;
70505;SDS011;58032;49.820;6.274;2023-06-22T10:23:21;14.90;;;9.32;;
70505;SDS011;58032;49.820;6.274;2023-06-22T10:25:48;14.18;;;9.38;;
70505;SDS011;58032;49.820;6.274;2023-06-22T10:28:15;14.30;;;9.80;;
70505;SDS011;58032;49.820;6.274;2023-06-22T10:30:42;12.82;;;10.20;;
70505;SDS011;58032;49.820;6.274;2023-06-22T10:33:10;17.50;;;10.30;;
70505;SDS011;58032;49.820;6.274;2023-06-22T10:35:38;12.98;;;9.23;;
70505;SDS011;58032;49.820;6.274;2023-06-22T10:38:05;12.05;;;8.57;;
70505;SDS011;58032;49.820;6.274;2023-06-22T10:40:34;10.53;;;7.30;;
70505;SDS011;58032;49.820;6.274;2023-06-22T10:43:01;12.23;;;8.70;;
70505;SDS011;58032;49.820;6.274;2023-06-22T10:45:28;12.90;;;8.05;;
70505;SDS011;58032;49.820;6.274;2023-06-22T10:47:55;13.18;;;9.65;;
70505;SDS011;58032;49.820;6.274;2023-06-22T10:50:22;15.80;;;9.85;;
70505;SDS011;58032;49.820;6.274;2023-06-22T10:52:50;14.03;;;9.53;;
70505;SDS011;58032;49.820;6.274;2023-06-22T10:55:18;14.90;;;9.25;;
70505;SDS011;58032;49.820;6.274;2023-06-22T10:57:45;12.73;;;9.30;;
70505;SDS011;58032;49.820;6.274;2023-06-22T11:00:13;11.32;;;7.75;;
70505;SDS011;58032;49.820;6.274;2023-06-22T11:02:41;15.23;;;9.48;;
70505;SDS011;58032;49.820;6.274;2023-06-22T11:05:08;12.63;;;8.57;;
70505;SDS011;58032;49.820;6.274;2023-06-22T11:07:35;14.30;;;8.23;;
70505;SDS011;58032;49.820;6.274;2023-06-22T11:10:09;13.05;;;8.15;;
70505;SDS011;58032;49.820;6.274;2023-06-22T11:12:36;13.25;;;8.70;;
70505;SDS011;58032;49.820;6.274;2023-06-22T11:15:03;12.80;;;8.90;;
70505;SDS011;58032;49.820;6.274;2023-06-22T11:17:30;13.03;;;9.40;;
70505;SDS011;58032;49.820;6.274;2023-06-22T11:19:57;12.88;;;8.40;;
70505;SDS011;58032;49.820;6.274;2023-06-22T11:22:25;17.38;;;9.30;;
70505;SDS011;58032;49.820;6.274;2023-06-22T11:24:52;12.68;;;9.15;;
70505;SDS011;58032;49.820;6.274;2023-06-22T11:27:19;14.85;;;9.80;;
70505;SDS011;58032;49.820;6.274;2023-06-22T11:29:46;14.40;;;9.67;;
70505;SDS011;58032;49.820;6.274;2023-06-22T11:32:13;11.27;;;7.90;;
70505;SDS011;58032;49.820;6.274;2023-06-22T11:34:40;11.73;;;8.50;;
70505;SDS011;58032;49.820;6.274;2023-06-22T11:37:07;13.80;;;9.27;;
70505;SDS011;58032;49.820;6.274;2023-06-22T11:39:34;14.05;;;9.88;;
70505;SDS011;58032;49.820;6.274;2023-06-22T11:42:04;12.97;;;9.70;;
70505;SDS011;58032;49.820;6.274;2023-06-22T11:44:31;11.90;;;7.95;;
70505;SDS011;58032;49.820;6.274;2023-06-22T11:46:58;15.45;;;9.63;;
70505;SDS011;58032;49.820;6.274;2023-06-22T11:49:27;12.40;;;8.90;;
70505;SDS011;58032;49.820;6.274;2023-06-22T11:51:54;11.60;;;8.90;;
70505;SDS011;58032;49.820;6.274;2023-06-22T11:54:21;13.70;;;8.57;;
70505;SDS011;58032;49.820;6.274;2023-06-22T11:56:48;13.05;;;9.23;;
70505;SDS011;58032;49.820;6.274;2023-06-22T11:59:17;12.38;;;9.20;;
70505;SDS011;58032;49.820;6.274;2023-06-22T12:01:44;12.90;;;8.82;;
70505;SDS011;58032;49.820;6.274;2023-06-22T12:04:10;13.50;;;9.07;;
70505;SDS011;58032;49.820;6.274;2023-06-22T12:06:38;12.10;;;7.83;;
70505;SDS011;58032;49.820;6.274;2023-06-22T12:09:08;12.27;;;7.72;;
70505;SDS011;58032;49.820;6.274;2023-06-22T12:11:35;10.57;;;7.82;;
70505;SDS011;58032;49.820;6.274;2023-06-22T12:14:02;11.68;;;7.93;;
70505;SDS011;58032;49.820;6.274;2023-06-22T12:16:29;12.43;;;8.10;;
70505;SDS011;58032;49.820;6.274;2023-06-22T12:18:55;11.33;;;8.13;;
70505;SDS011;58032;49.820;6.274;2023-06-22T12:21:22;12.05;;;8.73;;
70505;SDS011;58032;49.820;6.274;2023-06-22T12:23:49;14.68;;;8.55;;
70505;SDS011;58032;49.820;6.274;2023-06-22T12:26:16;13.75;;;9.02;;
70505;SDS011;58032;49.820;6.274;2023-06-22T12:28:43;13.68;;;9.07;;
70505;SDS011;58032;49.820;6.274;2023-06-22T12:31:10;13.67;;;8.77;;
70505;SDS011;58032;49.820;6.274;2023-06-22T12:33:37;12.65;;;9.23;;
70505;SDS011;58032;49.820;6.274;2023-06-22T12:36:04;12.07;;;8.85;;
70505;SDS011;58032;49.820;6.274;2023-06-22T12:38:32;13.02;;;9.02;;
70505;SDS011;58032;49.820;6.274;2023-06-22T12:40:58;12.20;;;9.18;;
70505;SDS011;58032;49.820;6.274;2023-06-22T12:43:25;12.30;;;8.70;;
70505;SDS011;58032;49.820;6.274;2023-06-22T12:45:52;10.90;;;8.85;;
70505;SDS011;58032;49.820;6.274;2023-06-22T12:48:21;12.57;;;9.02;;
70505;SDS011;58032;49.820;6.274;2023-06-22T12:50:49;10.80;;;7.80;;
70505;SDS011;58032;49.820;6.274;2023-06-22T12:53:16;13.13;;;8.57;;
70505;SDS011;58032;49.820;6.274;2023-06-22T12:55:42;13.80;;;8.47;;
70505;SDS011;58032;49.820;6.274;2023-06-22T12:58:09;13.10;;;8.45;;
70505;SDS011;58032;49.820;6.274;2023-06-22T13:00:37;12.52;;;8.65;;
70505;SDS011;58032;49.820;6.274;2023-06-22T13:03:04;13.10;;;8.43;;
70505;SDS011;58032;49.820;6.274;2023-06-22T13:05:31;13.38;;;8.45;;
70505;SDS011;58032;49.820;6.274;2023-06-22T13:08:01;12.20;;;8.50;;
70505;SDS011;58032;49.820;6.274;2023-06-22T13:10:28;12.73;;;8.57;;
70505;SDS011;58032;49.820;6.274;2023-06-22T13:12:55;16.02;;;12.07;;
70505;SDS011;58032;49.820;6.274;2023-06-22T13:15:27;12.40;;;9.07;;
70505;SDS011;58032;49.820;6.274;2023-06-22T13:17:55;11.70;;;8.35;;
70505;SDS011;58032;49.820;6.274;2023-06-22T13:20:22;15.03;;;8.53;;
70505;SDS011;58032;49.820;6.274;2023-06-22T13:22:49;11.43;;;7.93;;
70505;SDS011;58032;49.820;6.274;2023-06-22T13:25:16;12.48;;;8.82;;
70505;SDS011;58032;49.820;6.274;2023-06-22T13:27:45;11.93;;;8.38;;
70505;SDS011;58032;49.820;6.274;2023-06-22T13:30:12;15.00;;;8.65;;
70505;SDS011;58032;49.820;6.274;2023-06-22T13:32:40;14.23;;;9.33;;
70505;SDS011;58032;49.820;6.274;2023-06-22T13:35:11;12.80;;;8.98;;
70505;SDS011;58032;49.820;6.274;2023-06-22T13:37:38;23.40;;;11.63;;
70505;SDS011;58032;49.820;6.274;2023-06-22T13:40:05;15.63;;;8.90;;
70505;SDS011;58032;49.820;6.274;2023-06-22T13:42:33;16.63;;;7.60;;
70505;SDS011;58032;49.820;6.274;2023-06-22T13:45:00;13.85;;;6.97;;
70505;SDS011;58032;49.820;6.274;2023-06-22T13:47:29;12.40;;;6.87;;
70505;SDS011;58032;49.820;6.274;2023-06-22T13:49:57;11.75;;;7.22;;
70505;SDS011;58032;49.820;6.274;2023-06-22T13:52:24;11.73;;;7.93;;
70505;SDS011;58032;49.820;6.274;2023-06-22T13:54:52;14.15;;;7.53;;
70505;SDS011;58032;49.820;6.274;2023-06-22T13:57:19;13.23;;;7.60;;
70505;SDS011;58032;49.820;6.274;2023-06-22T13:59:46;12.00;;;7.37;;
70505;SDS011;58032;49.820;6.274;2023-06-22T14:02:13;11.13;;;7.43;;
70505;SDS011;58032;49.820;6.274;2023-06-22T14:04:40;11.13;;;7.05;;
70505;SDS011;58032;49.820;6.274;2023-06-22T14:07:07;11.95;;;7.70;;
70505;SDS011;58032;49.820;6.274;2023-06-22T14:09:34;12.55;;;7.28;;
70505;SDS011;58032;49.820;6.274;2023-06-22T14:12:05;12.60;;;7.67;;
70505;SDS011;58032;49.820;6.274;2023-06-22T14:14:33;13.00;;;6.80;;
70505;SDS011;58032;49.820;6.274;2023-06-22T14:17:00;11.32;;;5.43;;
70505;SDS011;58032;49.820;6.274;2023-06-22T14:19:27;10.85;;;4.85;;
70505;SDS011;58032;49.820;6.274;2023-06-22T14:21:53;10.32;;;4.82;;
70505;SDS011;58032;49.820;6.274;2023-06-22T14:24:21;9.37;;;4.87;;
70505;SDS011;58032;49.820;6.274;2023-06-22T14:26:50;7.78;;;4.22;;
70505;SDS011;58032;49.820;6.274;2023-06-22T14:29:17;6.78;;;3.95;;
70505;SDS011;58032;49.820;6.274;2023-06-22T14:31:44;10.18;;;4.63;;
70505;SDS011;58032;49.820;6.274;2023-06-22T14:34:12;7.72;;;4.40;;
70505;SDS011;58032;49.820;6.274;2023-06-22T14:36:40;12.50;;;4.63;;
70505;SDS011;58032;49.820;6.274;2023-06-22T14:39:08;11.02;;;3.90;;
70505;SDS011;58032;49.820;6.274;2023-06-22T14:41:35;15.45;;;3.85;;
70505;SDS011;58032;49.820;6.274;2023-06-22T14:44:02;7.38;;;3.58;;
70505;SDS011;58032;49.820;6.274;2023-06-22T14:46:29;5.30;;;2.45;;